Time;durP1;ratioP1;P1;durP2;ratioP2;P2;SDS_P1;SDS_P2;PMS_P1;PMS_P2;Temp;Humidity;BMP_temperature;BMP_pressure;BME280_temperature;BME280_humidity;BME280_pressure;Samples;Min_cycle;Max_cycle;Signal;HPM_P1;HPM_P2
2021/07/15 00:01:24;;;;;;;47.25;4.80;;;19.40;87.20;;;;;;4982782;28;20039;-58
2021/07/15 00:03:50;;;;;;;32.42;4.50;;;19.40;87.20;;;;;;4980700;28;20548;-59
2021/07/15 00:06:15;;;;;;;31.70;4.38;;;19.40;87.30;;;;;;4982751;28;20030;-58
2021/07/15 00:08:44;;;;;;;21.42;4.18;;;19.40;87.30;;;;;;4979043;28;20810;-59
2021/07/15 00:11:11;;;;;;;26.35;4.10;;;19.30;87.20;;;;;;4982140;28;20034;-59
2021/07/15 00:13:37;;;;;;;32.97;4.30;;;19.30;87.30;;;;;;4981113;28;20038;-59
2021/07/15 00:16:04;;;;;;;21.50;4.30;;;19.30;87.30;;;;;;4982777;28;20048;-59
2021/07/15 00:18:32;;;;;;;22.52;3.50;;;19.30;87.30;;;;;;4980241;28;20041;-58
2021/07/15 00:20:58;;;;;;;25.33;3.47;;;19.30;87.30;;;;;;4979683;28;20437;-59
2021/07/15 00:23:24;;;;;;;21.45;3.85;;;19.20;87.30;;;;;;4983410;28;20022;-58
2021/07/15 00:25:49;;;;;;;35.00;4.10;;;19.30;87.40;;;;;;4981432;28;20046;-59
2021/07/15 00:28:15;;;;;;;22.35;4.20;;;19.20;87.30;;;;;;4982085;28;20077;-59
2021/07/15 00:30:41;;;;;;;15.40;3.80;;;19.20;87.40;;;;;;4980256;28;20505;-58
2021/07/15 00:33:07;;;;;;;16.83;3.30;;;19.20;87.30;;;;;;4980715;28;20027;-58
2021/07/15 00:35:33;;;;;;;15.70;3.50;;;19.20;87.40;;;;;;4981168;28;20026;-58
2021/07/15 00:37:59;;;;;;;16.58;3.30;;;19.10;87.40;;;;;;4981268;28;20137;-58
2021/07/15 00:40:24;;;;;;;25.88;4.03;;;19.10;87.30;;;;;;4980576;28;20121;-58
2021/07/15 00:42:50;;;;;;;16.98;3.85;;;19.10;87.40;;;;;;4982090;28;20470;-59
2021/07/15 00:45:18;;;;;;;17.98;4.35;;;19.10;87.40;;;;;;4982826;28;20488;-58
2021/07/15 00:47:44;;;;;;;15.02;3.40;;;19.10;87.40;;;;;;4981282;28;20045;-59
2021/07/15 00:50:10;;;;;;;15.77;3.85;;;19.10;87.50;;;;;;4981363;28;20070;-58
2021/07/15 00:52:37;;;;;;;13.68;3.20;;;19.10;87.50;;;;;;4998441;28;20050;-59
2021/07/15 00:55:04;;;;;;;23.30;3.50;;;19.10;87.50;;;;;;4981872;28;20054;-59
2021/07/15 00:57:29;;;;;;;12.88;2.90;;;19.10;87.50;;;;;;4981090;28;20077;-59
2021/07/15 00:59:55;;;;;;;14.82;2.88;;;19.00;87.50;;;;;;4963640;28;20046;-59
2021/07/15 01:02:20;;;;;;;10.82;3.42;;;19.00;87.50;;;;;;4980263;28;20054;-58
2021/07/15 01:04:46;;;;;;;16.60;3.60;;;19.00;87.50;;;;;;4980703;28;20165;-59
2021/07/15 01:07:12;;;;;;;11.90;3.00;;;19.00;87.40;;;;;;4982888;28;20115;-59
2021/07/15 01:09:37;;;;;;;10.73;3.25;;;18.90;87.40;;;;;;4980996;28;20038;-58
2021/07/15 01:12:11;;;;;;;7.38;2.40;;;18.90;87.50;;;;;;4961977;28;20046;-59
2021/07/15 01:14:45;;;;;;;11.02;2.35;;;19.00;87.60;;;;;;4981776;28;20038;-58
2021/07/15 01:17:15;;;;;;;9.98;2.80;;;19.00;87.70;;;;;;4980378;28;20053;-59
2021/07/15 01:19:49;;;;;;;15.20;2.67;;;18.90;87.60;;;;;;4980714;28;20045;-58
2021/07/15 01:22:36;;;;;;;12.38;2.85;;;18.90;87.60;;;;;;4982013;28;20133;-58
2021/07/15 01:25:20;;;;;;;5.63;3.28;;;18.90;87.60;;;;;;4980699;28;20038;-59
2021/07/15 01:28:27;;;;;;;7.00;3.17;;;18.90;87.80;;;;;;4982670;28;20122;-59
2021/07/15 01:30:53;;;;;;;6.25;2.70;;;18.90;87.80;;;;;;4956574;28;20042;-58
2021/07/15 01:33:20;;;;;;;9.45;2.58;;;18.80;87.70;;;;;;4965020;28;20065;-59
2021/07/15 01:36:01;;;;;;;9.25;3.03;;;18.80;87.80;;;;;;4964856;28;20461;-58
2021/07/15 01:38:29;;;;;;;6.75;3.25;;;18.80;87.80;;;;;;4979715;28;20060;-59
2021/07/15 01:41:00;;;;;;;7.80;2.75;;;18.80;87.80;;;;;;4981576;28;20102;-59
2021/07/15 01:43:48;;;;;;;5.35;3.03;;;18.80;87.90;;;;;;4981302;28;21846;-58
2021/07/15 01:46:14;;;;;;;13.00;3.05;;;18.80;87.90;;;;;;4983372;28;20046;-58
2021/07/15 01:48:40;;;;;;;7.47;2.90;;;18.80;87.90;;;;;;4968102;28;20033;-58
2021/07/15 01:51:06;;;;;;;6.07;2.80;;;18.80;88.00;;;;;;4982769;28;20154;-59
2021/07/15 01:53:31;;;;;;;5.63;2.40;;;18.80;88.00;;;;;;4969107;28;20121;-59
2021/07/15 01:55:57;;;;;;;3.58;2.20;;;18.80;88.00;;;;;;4985018;28;20152;-58
2021/07/15 01:58:23;;;;;;;4.60;2.33;;;18.80;88.00;;;;;;4983987;28;20061;-58
2021/07/15 02:00:49;;;;;;;4.28;2.30;;;18.80;88.00;;;;;;4984315;28;21058;-59
2021/07/15 02:03:15;;;;;;;8.13;2.20;;;18.70;88.00;;;;;;4982774;28;20646;-58
2021/07/15 02:05:41;;;;;;;4.38;2.20;;;18.70;88.00;;;;;;4984052;28;20042;-59
2021/07/15 02:08:06;;;;;;;3.25;1.98;;;18.70;88.10;;;;;;4968958;28;20034;-58
2021/07/15 02:10:32;;;;;;;3.40;1.80;;;18.70;88.20;;;;;;4984442;28;20117;-58
2021/07/15 02:12:58;;;;;;;3.25;2.00;;;18.70;88.20;;;;;;4984246;28;20092;-58
2021/07/15 02:15:27;;;;;;;6.20;1.65;;;18.60;88.80;;;;;;4983309;28;20038;-59
2021/07/15 02:17:54;;;;;;;3.83;1.50;;;18.70;88.20;;;;;;4984078;28;21426;-58
2021/07/15 02:20:20;;;;;;;7.85;2.00;;;18.60;88.10;;;;;;4984452;28;20058;-58
2021/07/15 02:22:46;;;;;;;2.53;2.30;;;18.60;88.10;;;;;;4968622;28;20054;-58
2021/07/15 02:25:11;;;;;;;7.10;2.70;;;18.60;88.10;;;;;;4985039;28;20056;-58
2021/07/15 02:27:38;;;;;;;4.05;2.35;;;18.60;88.10;;;;;;4982099;28;20186;-59
2021/07/15 02:30:06;;;;;;;2.45;2.05;;;18.60;88.10;;;;;;4982121;28;20061;-58
2021/07/15 02:32:32;;;;;;;3.88;2.40;;;18.60;88.10;;;;;;4966865;28;20027;-59
2021/07/15 02:35:01;;;;;;;3.10;2.38;;;18.50;88.10;;;;;;4985953;28;20073;-59
2021/07/15 02:37:33;;;;;;;3.80;2.25;;;18.60;88.20;;;;;;4982371;28;20049;-58
2021/07/15 02:39:58;;;;;;;5.53;2.38;;;18.60;88.20;;;;;;4984083;28;20057;-59
2021/07/15 02:42:24;;;;;;;2.42;1.90;;;18.50;88.20;;;;;;4982803;28;20046;-58
2021/07/15 02:44:49;;;;;;;5.03;1.60;;;18.50;88.30;;;;;;4984250;28;20034;-58
2021/07/15 02:47:15;;;;;;;2.42;1.70;;;18.50;88.30;;;;;;4984135;28;20486;-58
2021/07/15 02:49:41;;;;;;;2.20;1.55;;;18.50;88.30;;;;;;4984237;28;20041;-59
2021/07/15 02:52:07;;;;;;;1.80;1.50;;;18.50;88.30;;;;;;4983833;28;20022;-59
2021/07/15 02:54:34;;;;;;;2.05;1.38;;;18.50;88.40;;;;;;4984088;28;20050;-59
2021/07/15 02:57:22;;;;;;;1.80;1.27;;;18.50;88.40;;;;;;4982569;28;20030;-59
2021/07/15 02:59:55;;;;;;;4.05;1.55;;;18.50;88.40;;;;;;4983774;28;20049;-59
2021/07/15 03:02:26;;;;;;;1.90;1.30;;;18.50;88.40;;;;;;4983378;28;20030;-58
2021/07/15 03:05:24;;;;;;;2.95;1.20;;;18.40;88.50;;;;;;4984009;28;20163;-59
2021/07/15 03:08:00;;;;;;;1.80;1.20;;;18.40;88.60;;;;;;4984055;28;20081;-58
2021/07/15 03:10:25;;;;;;;1.05;0.95;;;18.40;88.60;;;;;;4982168;28;20038;-59
2021/07/15 03:12:51;;;;;;;1.42;1.00;;;18.40;88.60;;;;;;4983909;28;20022;-59
2021/07/15 03:15:16;;;;;;;0.93;0.82;;;18.40;88.60;;;;;;4983051;28;20073;-59
2021/07/15 03:17:49;;;;;;;1.63;1.00;;;18.40;88.60;;;;;;4982879;28;20105;-58
2021/07/15 03:20:17;;;;;;;2.05;1.00;;;18.40;88.60;;;;;;4981887;28;20038;-59
2021/07/15 03:22:44;;;;;;;1.30;0.80;;;18.40;88.60;;;;;;4982912;28;20105;-59
2021/07/15 03:25:14;;;;;;;4.63;1.10;;;18.40;88.70;;;;;;4982520;28;20459;-58
2021/07/15 03:27:47;;;;;;;1.20;0.90;;;18.40;89.30;;;;;;4982768;28;20256;-58
2021/07/15 03:30:13;;;;;;;1.15;0.88;;;18.30;88.60;;;;;;4966281;28;20045;-59
2021/07/15 03:32:39;;;;;;;1.67;0.77;;;18.40;88.70;;;;;;4983269;28;21035;-59
2021/07/15 03:35:05;;;;;;;1.17;0.90;;;18.40;88.70;;;;;;4981814;28;20030;-59
2021/07/15 03:37:31;;;;;;;2.05;1.08;;;18.40;88.70;;;;;;4982731;28;20117;-58
2021/07/15 03:39:56;;;;;;;9.75;1.35;;;18.40;88.70;;;;;;4982790;28;20548;-59
2021/07/15 03:42:22;;;;;;;18.17;3.03;;;18.30;88.70;;;;;;4982148;28;20501;-59
2021/07/15 03:44:48;;;;;;;12.75;1.63;;;18.30;88.70;;;;;;4982471;28;20026;-58
2021/07/15 03:47:14;;;;;;;29.40;2.53;;;18.30;88.70;;;;;;4981036;28;20092;-59
2021/07/15 03:49:41;;;;;;;18.50;1.98;;;18.30;88.80;;;;;;4982676;28;20030;-59
2021/07/15 03:52:10;;;;;;;11.43;1.63;;;18.30;88.80;;;;;;4982825;28;20035;-59
2021/07/15 03:54:35;;;;;;;12.70;1.85;;;18.30;88.80;;;;;;4982077;28;20030;-58
2021/07/15 03:57:01;;;;;;;12.25;1.70;;;18.30;88.80;;;;;;4983014;28;20057;-59
2021/07/15 03:59:26;;;;;;;8.32;1.50;;;18.30;88.90;;;;;;4980824;28;20053;-58
2021/07/15 04:02:03;;;;;;;14.32;1.40;;;18.30;88.90;;;;;;4981147;28;20026;-59
2021/07/15 04:04:29;;;;;;;10.80;1.13;;;18.30;88.90;;;;;;4965849;28;20383;-58
2021/07/15 04:06:55;;;;;;;11.63;1.30;;;18.30;89.00;;;;;;4981205;28;20606;-59
2021/07/15 04:09:21;;;;;;;14.32;2.42;;;18.30;89.00;;;;;;4979883;28;20018;-58
2021/07/15 04:11:46;;;;;;;11.98;2.35;;;18.30;89.60;;;;;;4978365;28;21258;-58
2021/07/15 04:14:15;;;;;;;21.65;1.75;;;18.30;89.00;;;;;;4981577;28;20060;-58
2021/07/15 04:17:05;;;;;;;17.23;1.35;;;18.20;88.90;;;;;;4981939;28;20062;-59
2021/07/15 04:19:32;;;;;;;19.67;1.48;;;18.20;89.00;;;;;;4981005;28;20034;-59
2021/07/15 04:21:58;;;;;;;9.13;1.00;;;18.20;89.20;;;;;;4980850;28;20069;-58
2021/07/15 04:24:23;;;;;;;6.65;0.80;;;18.20;89.20;;;;;;4981357;28;20406;-58
2021/07/15 04:26:49;;;;;;;5.80;1.52;;;18.20;89.30;;;;;;4977960;28;20117;-58
2021/07/15 04:29:16;;;;;;;7.15;1.35;;;18.10;89.40;;;;;;4981208;28;20054;-58
2021/07/15 04:32:00;;;;;;;8.98;1.45;;;18.10;89.40;;;;;;4981919;28;20168;-60
2021/07/15 04:34:27;;;;;;;5.88;1.02;;;18.10;89.40;;;;;;4983417;28;20029;-59
2021/07/15 04:36:52;;;;;;;4.13;1.17;;;18.10;89.40;;;;;;4961922;28;20371;-59
2021/07/15 04:39:18;;;;;;;7.35;0.85;;;18.10;89.40;;;;;;4963386;28;20053;-59
2021/07/15 04:41:44;;;;;;;7.25;0.70;;;18.10;89.40;;;;;;4980461;28;20469;-59
2021/07/15 04:44:11;;;;;;;11.45;1.15;;;18.10;89.50;;;;;;4981540;28;20057;-59
2021/07/15 04:46:36;;;;;;;6.20;0.90;;;18.10;89.60;;;;;;4981682;28;20045;-59
2021/07/15 04:49:02;;;;;;;5.95;0.70;;;18.10;89.70;;;;;;4964296;28;20034;-60
2021/07/15 04:51:27;;;;;;;3.90;0.98;;;18.10;89.70;;;;;;4979035;28;20833;-58
2021/07/15 04:53:53;;;;;;;2.45;1.00;;;18.10;89.70;;;;;;4981526;28;20443;-58
2021/07/15 04:56:18;;;;;;;4.72;0.82;;;18.10;89.80;;;;;;4979917;28;20022;-58
2021/07/15 04:58:44;;;;;;;4.60;0.63;;;18.10;89.90;;;;;;4981621;28;20042;-59
2021/07/15 05:01:10;;;;;;;8.10;1.10;;;18.10;89.90;;;;;;4981334;28;20037;-58
2021/07/15 05:03:36;;;;;;;1.65;0.60;;;18.10;89.90;;;;;;4962552;28;20630;-59
2021/07/15 05:06:03;;;;;;;2.50;0.85;;;18.00;89.90;;;;;;4980448;28;20038;-59
2021/07/15 05:08:28;;;;;;;5.20;1.17;;;18.00;89.90;;;;;;4949098;28;20042;-58
2021/07/15 05:10:54;;;;;;;0.75;0.45;;;18.00;89.90;;;;;;4980281;28;20085;-59
2021/07/15 05:13:20;;;;;;;3.00;0.50;;;18.00;89.90;;;;;;4964946;28;20371;-58
2021/07/15 05:15:46;;;;;;;5.45;1.00;;;18.00;89.90;;;;;;4980435;28;20395;-58
2021/07/15 05:18:12;;;;;;;3.13;0.75;;;18.00;89.90;;;;;;4980512;28;21271;-59
2021/07/15 05:20:37;;;;;;;1.42;0.60;;;18.00;89.90;;;;;;4983262;28;20042;-58
2021/07/15 05:23:03;;;;;;;1.88;0.52;;;18.10;90.00;;;;;;4984800;28;20026;-59
2021/07/15 05:25:28;;;;;;;3.15;0.50;;;18.00;90.00;;;;;;4981758;28;20117;-58
2021/07/15 05:27:54;;;;;;;2.20;0.40;;;18.00;90.00;;;;;;4982643;28;20228;-59
2021/07/15 05:30:19;;;;;;;3.03;0.60;;;18.00;90.00;;;;;;4983661;28;20046;-58
2021/07/15 05:32:45;;;;;;;3.53;0.47;;;18.00;90.00;;;;;;4984388;28;20282;-58
2021/07/15 05:35:10;;;;;;;2.72;0.60;;;18.00;90.30;;;;;;4986437;28;20022;-59
2021/07/15 05:37:36;;;;;;;2.28;0.45;;;18.00;90.00;;;;;;4984657;28;20111;-59
2021/07/15 05:40:03;;;;;;;2.60;0.60;;;18.00;90.10;;;;;;4982375;28;20058;-59
2021/07/15 05:42:28;;;;;;;1.00;0.50;;;18.00;90.10;;;;;;4982569;28;20072;-59
2021/07/15 05:44:55;;;;;;;2.30;0.60;;;18.00;90.10;;;;;;4984846;28;20105;-58
2021/07/15 05:47:20;;;;;;;1.52;0.40;;;18.00;90.10;;;;;;4984637;28;20334;-58
2021/07/15 05:49:46;;;;;;;0.45;0.30;;;18.00;90.10;;;;;;4985078;28;20034;-59
2021/07/15 05:52:12;;;;;;;1.63;0.45;;;18.00;90.10;;;;;;4985035;28;20042;-58
2021/07/15 05:54:38;;;;;;;1.52;0.32;;;18.00;90.10;;;;;;4985262;28;20037;-59
2021/07/15 05:57:04;;;;;;;4.47;0.40;;;18.00;90.10;;;;;;4984980;28;20117;-59
2021/07/15 05:59:29;;;;;;;0.80;0.60;;;18.00;90.10;;;;;;4984427;28;20261;-59
2021/07/15 06:01:55;;;;;;;1.23;0.80;;;18.00;90.10;;;;;;4992996;28;20531;-58
2021/07/15 06:04:20;;;;;;;0.55;0.30;;;18.00;90.00;;;;;;4983041;28;20061;-59
2021/07/15 06:06:46;;;;;;;1.55;0.50;;;18.00;89.90;;;;;;4996655;28;20141;-58
2021/07/15 06:09:11;;;;;;;1.02;0.43;;;18.00;89.90;;;;;;4980443;28;20563;-58
2021/07/15 06:11:37;;;;;;;15.00;1.95;;;18.00;90.00;;;;;;4981720;28;20042;-59
2021/07/15 06:14:02;;;;;;;33.50;3.03;;;18.00;90.00;;;;;;4967433;28;20034;-58
2021/07/15 06:16:28;;;;;;;21.45;1.85;;;18.00;90.00;;;;;;4966263;28;20089;-59
2021/07/15 06:18:53;;;;;;;15.40;1.17;;;18.00;90.00;;;;;;4981214;28;20030;-59
2021/07/15 06:21:19;;;;;;;9.75;1.42;;;18.10;90.00;;;;;;4980101;28;20085;-58
2021/07/15 06:23:45;;;;;;;4.88;0.80;;;18.10;90.00;;;;;;4982859;28;20026;-58
2021/07/15 06:26:11;;;;;;;9.73;0.65;;;18.10;90.00;;;;;;4979413;28;20541;-59
2021/07/15 06:28:36;;;;;;;10.73;1.50;;;18.10;90.10;;;;;;4982366;28;20052;-58
2021/07/15 06:31:02;;;;;;;7.05;1.33;;;18.10;90.20;;;;;;4982370;28;20050;-59
2021/07/15 06:33:28;;;;;;;10.52;1.65;;;18.10;90.20;;;;;;4979626;28;20038;-59
2021/07/15 06:35:53;;;;;;;8.73;0.70;;;18.10;90.20;;;;;;4980807;28;20088;-58
2021/07/15 06:38:19;;;;;;;12.50;1.60;;;18.10;90.20;;;;;;4982102;28;20092;-59
2021/07/15 06:40:52;;;;;;;13.82;1.95;;;18.10;90.10;;;;;;4966562;28;20066;-59
2021/07/15 06:43:18;;;;;;;16.55;1.80;;;18.10;90.10;;;;;;4980291;28;20034;-60
2021/07/15 06:45:43;;;;;;;119.22;9.95;;;18.10;90.10;;;;;;4982952;28;20061;-59
2021/07/15 06:48:09;;;;;;;37.88;3.33;;;18.10;90.10;;;;;;4982205;28;20127;-58
2021/07/15 06:50:34;;;;;;;21.58;2.60;;;18.10;90.20;;;;;;4983827;28;20058;-59
2021/07/15 06:53:01;;;;;;;27.73;2.17;;;18.10;90.20;;;;;;4982225;28;20061;-58
2021/07/15 06:55:26;;;;;;;24.75;2.35;;;18.10;90.30;;;;;;4981883;28;20085;-58
2021/07/15 06:57:51;;;;;;;54.72;4.82;;;18.10;90.30;;;;;;4982019;28;20481;-58
2021/07/15 07:00:17;;;;;;;48.00;4.57;;;18.10;90.30;;;;;;4965291;28;20125;-58
2021/07/15 07:02:44;;;;;;;38.85;4.50;;;18.10;90.30;;;;;;4981006;28;20031;-58
2021/07/15 07:05:10;;;;;;;22.90;3.85;;;18.10;90.30;;;;;;4980708;28;20075;-59
2021/07/15 07:07:36;;;;;;;27.48;3.53;;;18.20;90.50;;;;;;4983577;28;20659;-59
2021/07/15 07:10:02;;;;;;;25.65;3.50;;;18.10;90.60;;;;;;4981417;28;20133;-59
2021/07/15 07:12:28;;;;;;;28.92;4.22;;;18.10;90.80;;;;;;4979426;28;20034;-58
2021/07/15 07:14:53;;;;;;;31.75;3.10;;;18.20;90.80;;;;;;4995697;28;20037;-58
2021/07/15 07:17:19;;;;;;;35.08;3.58;;;18.10;91.00;;;;;;4980289;28;20069;-58
2021/07/15 07:19:44;;;;;;;29.35;2.97;;;18.10;91.00;;;;;;4980197;28;20121;-59
2021/07/15 07:22:10;;;;;;;30.10;2.88;;;18.10;91.10;;;;;;4977532;28;20369;-59
2021/07/15 07:24:35;;;;;;;31.83;3.10;;;18.10;91.20;;;;;;4977379;28;20489;-59
2021/07/15 07:27:01;;;;;;;17.42;3.00;;;18.00;91.20;;;;;;4971892;28;21506;-58
2021/07/15 07:29:26;;;;;;;24.33;2.92;;;18.10;91.30;;;;;;4978308;28;20496;-58
2021/07/15 07:31:52;;;;;;;28.13;3.67;;;18.10;91.40;;;;;;4962751;28;20500;-58
2021/07/15 07:34:18;;;;;;;22.48;3.65;;;18.10;91.80;;;;;;4981608;28;20143;-58
2021/07/15 07:36:43;;;;;;;28.55;3.08;;;18.10;91.50;;;;;;4978743;28;20129;-59
2021/07/15 07:39:09;;;;;;;24.67;2.88;;;18.10;91.60;;;;;;4979651;28;20050;-58
2021/07/15 07:41:35;;;;;;;31.45;2.92;;;18.20;91.80;;;;;;4980632;28;20034;-59
2021/07/15 07:44:01;;;;;;;36.78;3.42;;;18.20;91.80;;;;;;4974977;28;20030;-59
2021/07/15 07:46:26;;;;;;;21.17;2.40;;;18.10;91.80;;;;;;4978810;28;20085;-58
2021/07/15 07:48:52;;;;;;;54.30;5.03;;;18.00;91.90;;;;;;4979720;28;20044;-59
2021/07/15 07:51:18;;;;;;;38.50;4.40;;;18.20;92.00;;;;;;4974499;28;20211;-58
2021/07/15 07:53:45;;;;;;;16.35;3.00;;;18.20;92.00;;;;;;4976674;28;20060;-59
2021/07/15 07:56:10;;;;;;;24.23;3.17;;;18.20;91.80;;;;;;4976913;28;20109;-58
2021/07/15 07:58:36;;;;;;;14.73;2.33;;;18.20;91.60;;;;;;4982575;28;20383;-59
2021/07/15 08:01:03;;;;;;;21.35;2.83;;;18.20;91.60;;;;;;4980657;28;20049;-58
2021/07/15 08:03:29;;;;;;;18.00;2.72;;;18.20;91.50;;;;;;4980135;28;20038;-58
2021/07/15 08:05:55;;;;;;;10.18;2.20;;;18.30;91.40;;;;;;4981818;28;20038;-58
2021/07/15 08:08:21;;;;;;;24.80;2.63;;;18.30;91.40;;;;;;4978669;28;20113;-59
2021/07/15 08:10:47;;;;;;;21.38;3.05;;;18.40;91.40;;;;;;4956870;28;20053;-58
2021/07/15 08:13:12;;;;;;;19.25;2.78;;;18.40;91.30;;;;;;4979581;28;20560;-58
2021/07/15 08:15:38;;;;;;;29.27;2.83;;;18.40;91.10;;;;;;4979345;28;20080;-58
2021/07/15 08:18:04;;;;;;;15.43;2.38;;;18.40;91.30;;;;;;4958707;28;20054;-59
2021/07/15 08:20:29;;;;;;;17.13;2.53;;;18.50;91.30;;;;;;4976517;28;20100;-59
2021/07/15 08:22:55;;;;;;;15.88;2.53;;;18.50;91.30;;;;;;4979988;28;20126;-57
2021/07/15 08:25:22;;;;;;;24.33;2.90;;;18.50;91.50;;;;;;4978915;28;20034;-58
2021/07/15 08:27:48;;;;;;;28.67;3.85;;;18.50;91.50;;;;;;4994168;28;20057;-58
2021/07/15 08:30:14;;;;;;;31.42;3.63;;;18.60;91.60;;;;;;4975893;28;20448;-58
2021/07/15 08:32:40;;;;;;;57.63;5.38;;;18.60;91.60;;;;;;4955540;28;20128;-58
2021/07/15 08:35:06;;;;;;;40.90;3.83;;;18.60;91.60;;;;;;4972830;28;20442;-58
2021/07/15 08:37:32;;;;;;;36.63;4.28;;;18.60;91.60;;;;;;4962388;28;20465;-59
2021/07/15 08:39:57;;;;;;;29.05;3.53;;;18.60;91.60;;;;;;4963914;28;20027;-58
2021/07/15 08:42:23;;;;;;;25.95;3.92;;;18.60;91.80;;;;;;4978842;28;20057;-58
2021/07/15 08:44:48;;;;;;;27.60;3.83;;;18.60;91.90;;;;;;4966784;28;20022;-59
2021/07/15 08:47:14;;;;;;;25.58;3.35;;;18.70;91.80;;;;;;4978246;28;20039;-58
2021/07/15 08:49:40;;;;;;;41.20;3.88;;;18.70;91.70;;;;;;4975789;28;20623;-59
2021/07/15 08:52:05;;;;;;;43.20;4.13;;;18.70;91.70;;;;;;4978933;28;20810;-58
2021/07/15 08:55:21;;;;;;;48.33;4.25;;;18.70;91.90;;;;;;4980172;28;20046;-58
2021/07/15 08:57:17;;;;;;;38.45;3.13;;;18.70;92.00;;;;;;4954778;28;20071;-58
2021/07/15 08:59:42;;;;;;;43.70;3.67;;;18.80;92.00;;;;;;4976249;28;20054;-58
2021/07/15 09:02:14;;;;;;;31.45;4.25;;;18.80;92.10;;;;;;4976788;28;20531;-58
2021/07/15 09:04:40;;;;;;;60.88;5.25;;;18.80;92.10;;;;;;4976522;28;20133;-59
2021/07/15 09:07:05;;;;;;;47.60;5.05;;;18.90;92.10;;;;;;4980572;28;20030;-59
2021/07/15 09:09:31;;;;;;;55.70;5.57;;;18.90;92.20;;;;;;4976407;28;20486;-58
2021/07/15 09:11:56;;;;;;;42.30;4.75;;;18.90;92.20;;;;;;4976133;28;20601;-59
2021/07/15 09:14:22;;;;;;;35.42;4.30;;;18.90;92.10;;;;;;4977737;28;20030;-58
2021/07/15 09:16:52;;;;;;;29.98;3.90;;;18.90;92.00;;;;;;4981690;28;20049;-58
2021/07/15 09:19:19;;;;;;;26.15;3.22;;;19.00;92.10;;;;;;4981854;28;20018;-58
2021/07/15 09:21:44;;;;;;;37.65;4.63;;;19.00;92.10;;;;;;4977913;28;20088;-58
2021/07/15 09:24:30;;;;;;;33.15;4.05;;;19.00;92.20;;;;;;4977600;28;20030;-59
2021/07/15 09:26:56;;;;;;;;;;;19.00;92.20;;;;;;4977883;28;20042;-59
2021/07/15 09:29:22;;;;;;;48.13;5.65;;;19.10;92.30;;;;;;4979450;28;19949;-58
2021/07/15 09:31:55;;;;;;;45.15;4.32;;;19.10;92.30;;;;;;4976324;28;20070;-59
2021/07/15 09:34:21;;;;;;;48.30;5.85;;;19.10;92.30;;;;;;4978505;28;20041;-59
2021/07/15 09:36:48;;;;;;;50.60;4.53;;;19.20;92.30;;;;;;4978186;28;20126;-59
2021/07/15 09:39:23;;;;;;;38.55;5.03;;;19.20;92.30;;;;;;4979037;28;20433;-58
2021/07/15 09:42:22;;;;;;;;;;;19.20;92.40;;;;;;4976614;28;20411;-59
2021/07/15 09:44:51;;;;;;;49.13;5.43;;;19.30;92.50;;;;;;4957400;28;20880;-59
2021/07/15 09:47:36;;;;;;;83.15;6.53;;;19.30;92.40;;;;;;4978036;28;20054;-59
2021/07/15 09:50:17;;;;;;;45.83;5.23;;;19.30;92.40;;;;;;4976435;28;20144;-58
2021/07/15 09:52:43;;;;;;;61.33;5.57;;;19.40;92.40;;;;;;4978480;28;20045;-59
2021/07/15 09:55:25;;;;;;;91.38;8.15;;;19.40;92.50;;;;;;4978101;28;20038;-58
2021/07/15 09:58:04;;;;;;;62.45;5.80;;;19.50;92.50;;;;;;4979201;28;20030;-58
2021/07/15 10:00:44;;;;;;;34.63;4.05;;;19.60;92.50;;;;;;4979004;28;20026;-59
2021/07/15 10:03:11;;;;;;;71.82;7.40;;;19.60;92.40;;;;;;4964072;28;20034;-58
2021/07/15 10:05:38;;;;;;;97.03;9.18;;;19.60;92.40;;;;;;4979570;28;20169;-59
2021/07/15 10:08:05;;;;;;;59.65;6.97;;;19.70;92.60;;;;;;4982422;28;20443;-59
2021/07/15 10:10:31;;;;;;;42.65;5.57;;;19.80;92.70;;;;;;4981842;28;20088;-59
2021/07/15 10:13:14;;;;;;;75.68;7.40;;;19.80;92.60;;;;;;4981858;28;20501;-59
2021/07/15 10:15:40;;;;;;;74.22;7.40;;;19.90;92.50;;;;;;4964560;28;20056;-60
2021/07/15 10:18:06;;;;;;;38.92;4.10;;;19.90;92.40;;;;;;4980690;28;20643;-58
2021/07/15 10:20:31;;;;;;;34.70;4.70;;;19.90;92.30;;;;;;4981040;28;20034;-59
2021/07/15 10:22:57;;;;;;;38.33;5.25;;;19.90;92.40;;;;;;4981662;28;20133;-58
2021/07/15 10:25:22;;;;;;;44.65;5.78;;;20.00;92.40;;;;;;4966673;28;20041;-59
2021/07/15 10:27:48;;;;;;;47.53;5.18;;;20.00;92.30;;;;;;4982688;28;20043;-59
2021/07/15 10:30:15;;;;;;;47.53;5.35;;;20.10;92.20;;;;;;4979870;28;20118;-59
2021/07/15 10:32:40;;;;;;;45.15;4.65;;;20.10;92.10;;;;;;4963236;28;20679;-58
2021/07/15 10:35:12;;;;;;;55.33;5.68;;;20.10;92.10;;;;;;4979504;28;20154;-59
2021/07/15 10:37:42;;;;;;;55.40;5.10;;;20.20;92.20;;;;;;4977004;28;20050;-59
2021/07/15 10:40:09;;;;;;;63.42;5.50;;;20.20;92.10;;;;;;4964204;28;20128;-58
2021/07/15 10:42:36;;;;;;;65.05;5.63;;;20.20;92.00;;;;;;4980947;28;20065;-59
2021/07/15 10:45:01;;;;;;;42.15;5.00;;;20.30;92.00;;;;;;4978897;28;20034;-59
2021/07/15 10:47:27;;;;;;;42.05;3.83;;;20.30;92.00;;;;;;4981706;28;20038;-58
2021/07/15 10:49:54;;;;;;;42.15;4.75;;;20.40;91.90;;;;;;4996200;28;20437;-59
2021/07/15 10:52:20;;;;;;;39.35;5.05;;;20.40;91.90;;;;;;4962669;28;20070;-59
2021/07/15 10:54:45;;;;;;;66.68;5.70;;;20.50;91.60;;;;;;4949366;28;20120;-59
2021/07/15 10:57:11;;;;;;;34.92;5.72;;;20.50;91.90;;;;;;4982906;28;20057;-59
2021/07/15 10:59:37;;;;;;;30.83;4.65;;;20.50;91.40;;;;;;4981174;28;21012;-58
2021/07/15 11:02:03;;;;;;;35.20;4.68;;;20.60;91.40;;;;;;4981185;28;20049;-59
2021/07/15 11:04:36;;;;;;;31.48;4.43;;;20.60;91.40;;;;;;4980031;28;20027;-59
2021/07/15 11:07:24;;;;;;;41.38;4.57;;;20.60;91.20;;;;;;4982820;28;20031;-59
2021/07/15 11:09:51;;;;;;;33.75;5.30;;;20.60;91.20;;;;;;4980915;28;20680;-59
2021/07/15 11:12:32;;;;;;;42.42;5.65;;;20.70;91.20;;;;;;4979875;28;20122;-59
2021/07/15 11:15:05;;;;;;;43.33;6.30;;;20.70;91.10;;;;;;4998825;28;20080;-59
2021/07/15 11:17:31;;;;;;;61.38;7.03;;;20.70;91.10;;;;;;4981350;28;20042;-59
2021/07/15 11:19:57;;;;;;;75.35;6.60;;;20.70;91.00;;;;;;4976558;28;20133;-58
2021/07/15 11:22:39;;;;;;;41.90;5.88;;;20.80;91.00;;;;;;4981771;28;20441;-59
2021/07/15 11:25:11;;;;;;;50.92;6.88;;;20.80;90.90;;;;;;4982145;28;20031;-59
2021/07/15 11:27:39;;;;;;;41.72;6.75;;;20.80;90.80;;;;;;4984243;28;20033;-59
2021/07/15 11:30:07;;;;;;;66.03;8.60;;;20.90;90.70;;;;;;4979514;28;20462;-59
2021/07/15 11:32:33;;;;;;;51.58;6.93;;;20.90;90.60;;;;;;4960847;28;20105;-59
2021/07/15 11:34:58;;;;;;;39.33;7.35;;;21.00;90.60;;;;;;4979348;28;20711;-58
2021/07/15 11:37:35;;;;;;;35.28;7.93;;;21.00;90.50;;;;;;4977784;28;20054;-59
2021/07/15 11:40:04;;;;;;;45.78;8.38;;;21.10;90.40;;;;;;4980878;28;20524;-59
2021/07/15 11:42:35;;;;;;;54.58;9.57;;;21.20;90.30;;;;;;4981593;28;20141;-59
2021/07/15 11:45:11;;;;;;;50.70;9.27;;;21.20;90.20;;;;;;4982517;28;20026;-59
2021/07/15 11:47:42;;;;;;;85.07;9.88;;;21.30;90.10;;;;;;4979291;28;20553;-59
2021/07/15 11:50:30;;;;;;;64.93;9.93;;;21.30;89.80;;;;;;4996401;28;20072;-59
2021/07/15 11:53:15;;;;;;;53.28;8.57;;;21.30;89.80;;;;;;4982625;28;20058;-59
2021/07/15 11:55:40;;;;;;;64.82;8.95;;;21.40;89.70;;;;;;4981017;28;20442;-59
2021/07/15 11:58:06;;;;;;;63.55;9.10;;;21.40;89.60;;;;;;4980781;28;20105;-59
2021/07/15 12:00:32;;;;;;;48.15;8.15;;;21.50;89.60;;;;;;4978984;28;20425;-59
2021/07/15 12:02:57;;;;;;;49.95;7.22;;;21.50;89.50;;;;;;4981884;28;20038;-59
2021/07/15 12:05:32;;;;;;;48.25;8.15;;;21.50;89.30;;;;;;4979729;28;20398;-59
2021/07/15 12:08:24;;;;;;;55.67;8.27;;;21.60;89.10;;;;;;4981442;28;20045;-59
2021/07/15 12:10:55;;;;;;;30.88;6.75;;;21.60;88.80;;;;;;4981393;28;20042;-59
2021/07/15 12:13:20;;;;;;;40.88;7.22;;;21.70;88.30;;;;;;4980950;28;20096;-59
2021/07/15 12:15:47;;;;;;;37.47;5.97;;;21.80;88.40;;;;;;4980665;28;20030;-59
2021/07/15 12:18:19;;;;;;;52.83;6.78;;;21.80;88.10;;;;;;4980191;28;20030;-59
2021/07/15 12:20:53;;;;;;;33.80;5.57;;;21.90;87.90;;;;;;4984025;28;20042;-59
2021/07/15 12:23:31;;;;;;;30.67;5.22;;;22.00;87.70;;;;;;4980097;28;20105;-59
2021/07/15 12:25:57;;;;;;;47.25;5.28;;;22.10;87.40;;;;;;4977866;28;20145;-59
2021/07/15 12:28:29;;;;;;;26.10;5.82;;;22.20;87.00;;;;;;4988767;28;20045;-59
2021/07/15 12:31:00;;;;;;;25.55;4.07;;;22.20;86.90;;;;;;4992813;28;20060;-59
2021/07/15 12:33:43;;;;;;;23.15;3.40;;;22.20;86.50;;;;;;4978969;28;20034;-59
2021/07/15 12:36:17;;;;;;;25.77;3.63;;;22.30;86.70;;;;;;4960071;28;20092;-59
2021/07/15 12:38:44;;;;;;;33.83;3.45;;;22.30;86.40;;;;;;4961510;28;20034;-59
2021/07/15 12:41:12;;;;;;;25.45;3.47;;;22.30;86.90;;;;;;4977298;28;20050;-59
2021/07/15 12:43:44;;;;;;;10.85;2.35;;;22.30;86.20;;;;;;4960848;28;20066;-59
2021/07/15 12:46:18;;;;;;;7.85;1.95;;;22.40;86.20;;;;;;4977380;28;20030;-60